Wickhaven, Pennsylvania
Current Conditions -  °F | °C
As of 4:53 PM on Monday 22 Dec 2014 (Local Time) from KAGC Reporting Station
Clear Clear  
Wind Chill: 37°   Ceiling: Unl
Heat Index: 42°   Visibility: 8mi
Dew Point: 27°   Wind: 8mph
Humidity: 55%   Direction: 130°SE
Pressure: 29.99"   Gusts: NA
Location:  40.12°N, 79.77°W
Report Text: KAGC 222153Z AUTO 13007KT 8SM CLR 06/M03 A2999 RMK AO2 SLP170 T00561028 TSNO
Loading
Personal Weather Stations






























Interactive Weather Map New forecast layout! Learn more

10-Day Weather Forecast

Advertisements
Track Severe Weather on mobile